Time;durP1;ratioP1;P1;durP2;ratioP2;P2;SDS_P1;SDS_P2;PMS_P1;PMS_P2;Temp;Humidity;BMP_temperature;BMP_pressure;BME280_temperature;BME280_humidity;BME280_pressure;Samples;Min_cycle;Max_cycle;Signal;HPM_P1;HPM_P2
2022/04/30 00:01:51;;;;;;;5.42;3.80;;;;;;;8.72;71.24;101489.42;1788799;79;21176;-58
2022/04/30 00:04:59;;;;;;;8.60;4.25;;;;;;;8.68;71.34;101487.46;1806944;79;21144;-59
2022/04/30 00:08:06;;;;;;;8.50;4.25;;;;;;;8.65;71.83;101485.01;1806799;78;21183;-59
2022/04/30 00:11:13;;;;;;;11.05;4.28;;;;;;;8.61;72.04;101484.06;1806927;79;21168;-60
2022/04/30 00:14:18;;;;;;;7.33;4.67;;;;;;;8.60;72.36;101486.40;1806925;78;21212;-58
2022/04/30 00:17:25;;;;;;;6.75;4.12;;;;;;;8.57;72.48;101483.95;1807001;78;21167;-60
2022/04/30 00:20:32;;;;;;;6.85;4.10;;;;;;;8.54;72.47;101477.41;1806957;79;21299;-60
2022/04/30 00:23:37;;;;;;;9.20;4.67;;;;;;;8.51;72.41;101481.77;1806731;78;21939;-60
2022/04/30 00:26:45;;;;;;;7.17;4.50;;;;;;;8.44;72.32;101475.11;1806944;79;21180;-59
2022/04/30 00:29:53;;;;;;;8.68;4.78;;;;;;;8.39;72.48;101478.25;1806756;79;21141;-59
2022/04/30 00:32:59;;;;;;;7.60;4.45;;;;;;;8.32;72.47;101475.72;1807031;78;21345;-59
2022/04/30 00:36:05;;;;;;;7.85;4.72;;;;;;;8.22;72.57;101472.52;1806775;79;21211;-60
2022/04/30 00:39:11;;;;;;;6.92;4.40;;;;;;;8.13;72.96;101480.14;1806888;78;21211;-60
2022/04/30 00:42:21;;;;;;;7.55;5.12;;;;;;;8.07;73.17;101480.16;1806911;79;21231;-61
2022/04/30 00:45:27;;;;;;;10.45;4.85;;;;;;;8.02;73.36;101477.48;1807234;79;21321;-60
2022/04/30 00:48:33;;;;;;;8.25;4.50;;;;;;;7.95;73.45;101474.42;1805702;78;21219;-61
2022/04/30 00:51:39;;;;;;;11.35;4.83;;;;;;;7.87;73.45;101478.80;1806933;79;21164;-61
2022/04/30 00:54:47;;;;;;;7.92;4.90;;;;;;;7.81;73.79;101472.52;1810089;79;21140;-59
2022/04/30 00:57:57;;;;;;;8.43;5.15;;;;;;;7.76;73.97;101477.48;1806701;78;21235;-59
2022/04/30 01:01:04;;;;;;;11.85;5.20;;;;;;;7.66;73.99;101476.56;1806923;79;21164;-60
2022/04/30 01:04:28;;;;;;;8.70;5.08;;;;;;;7.60;74.32;101478.81;1806735;78;21211;-59
2022/04/30 01:07:36;;;;;;;8.95;5.08;;;;;;;7.53;74.63;101473.50;1806797;78;21172;-59
2022/04/30 01:10:43;;;;;;;7.72;4.72;;;;;;;7.48;74.87;101479.83;1806892;79;21183;-59
2022/04/30 01:13:48;;;;;;;6.97;4.97;;;;;;;7.43;75.00;101476.66;1806746;78;21179;-59
2022/04/30 01:16:57;;;;;;;9.15;5.87;;;;;;;7.38;75.13;101473.94;1806366;79;21160;-60
2022/04/30 01:20:04;;;;;;;12.75;6.67;;;;;;;7.30;75.25;101471.86;1806368;79;21164;-60
2022/04/30 01:23:11;;;;;;;9.05;5.12;;;;;;;7.20;75.47;101466.80;1806427;78;21163;-59
2022/04/30 01:26:22;;;;;;;9.85;5.28;;;;;;;7.14;75.63;101479.58;1806401;79;21184;-59
2022/04/30 01:29:30;;;;;;;10.15;4.95;;;;;;;7.11;75.87;101477.59;1806413;78;21219;-60
2022/04/30 01:39:31;;;;;;;6.53;4.97;;;;;;;7.02;75.91;101470.20;1806527;78;21234;-60
2022/04/30 01:42:44;;;;;;;14.55;5.47;;;;;;;6.98;75.92;101470.94;1806463;78;21166;-60
2022/04/30 01:45:51;;;;;;;8.53;4.72;;;;;;;6.92;75.97;101466.49;1806421;79;21602;-60
2022/04/30 01:48:58;;;;;;;10.13;5.40;;;;;;;6.88;76.00;101468.59;1806401;75;21227;-59
2022/04/30 01:52:03;;;;;;;10.08;5.58;;;;;;;6.85;75.98;101471.56;1806766;79;21191;-60
2022/04/30 01:55:11;;;;;;;9.13;5.30;;;;;;;6.82;75.98;101462.81;1806775;79;21179;-60
2022/04/30 01:58:20;;;;;;;7.97;4.90;;;;;;;6.80;76.06;101453.91;1806732;78;21199;-60
2022/04/30 02:01:27;;;;;;;7.10;5.22;;;;;;;6.80;76.06;101456.11;1806797;79;21219;-60
2022/04/30 02:04:35;;;;;;;7.95;5.45;;;;;;;6.81;75.78;101453.78;1806819;78;21363;-60
2022/04/30 02:07:41;;;;;;;9.55;5.55;;;;;;;6.81;75.63;101456.50;1806830;78;21199;-60
2022/04/30 02:10:48;;;;;;;9.85;5.47;;;;;;;6.84;75.54;101458.09;1781752;79;21171;-60
2022/04/30 02:13:54;;;;;;;9.35;5.90;;;;;;;6.82;75.22;101459.58;1806868;78;21234;-60
2022/04/30 02:17:00;;;;;;;10.20;5.40;;;;;;;6.85;74.90;101463.41;1806821;79;21156;-60
2022/04/30 02:20:19;;;;;;;13.72;6.12;;;;;;;6.87;74.66;101461.92;1806837;79;21254;-59
2022/04/30 02:23:25;;;;;;;10.13;6.47;;;;;;;6.90;74.46;101467.98;1806707;78;21211;-60
2022/04/30 02:26:31;;;;;;;10.98;5.85;;;;;;;6.90;74.31;101465.26;1806717;79;21242;-58
2022/04/30 02:29:37;;;;;;;9.40;5.50;;;;;;;6.89;74.37;101459.45;1806727;78;21188;-59
2022/04/30 02:32:52;;;;;;;8.15;5.97;;;;;;;6.89;74.42;101470.34;1806857;78;21193;-59
2022/04/30 02:36:01;;;;;;;10.03;5.95;;;;;;;6.88;74.45;101465.88;1806823;79;21175;-60
2022/04/30 02:39:07;;;;;;;11.93;6.22;;;;;;;6.85;74.57;101463.41;1806766;78;21180;-60
2022/04/30 02:42:13;;;;;;;12.20;6.78;;;;;;;6.83;74.65;101461.33;1806801;79;21191;-60
2022/04/30 02:45:20;;;;;;;31.65;18.15;;;;;;;6.81;74.90;101463.79;1806777;79;21187;-60
2022/04/30 02:48:28;;;;;;;15.93;10.48;;;;;;;6.80;75.29;101468.36;1806581;78;21270;-60
2022/04/30 02:51:35;;;;;;;16.32;7.50;;;;;;;6.79;75.48;101466.63;1805867;77;21211;-59
2022/04/30 02:54:40;;;;;;;13.20;7.15;;;;;;;6.78;75.63;101470.36;1806673;78;21203;-59
2022/04/30 03:01:19;;;;;;;17.80;9.18;;;;;;;6.79;75.80;101470.72;1806671;79;21239;-59
2022/04/30 03:04:31;;;;;;;14.05;8.38;;;;;;;6.80;75.92;101468.36;1806947;78;21204;-60
2022/04/30 03:07:37;;;;;;;12.82;7.62;;;;;;;6.81;75.87;101471.47;1806733;78;21195;-60
2022/04/30 03:10:44;;;;;;;18.32;7.70;;;;;;;6.84;75.90;101471.22;1806686;79;21171;-60
2022/04/30 03:13:50;;;;;;;10.65;6.45;;;;;;;6.89;75.94;101466.27;1806796;78;21196;-60
2022/04/30 03:23:51;;;;;;;13.55;8.03;;;;;;;7.03;75.50;101480.08;1806717;78;21709;-61
2022/04/30 03:26:56;;;;;;;15.63;10.58;;;;;;;7.08;75.39;101476.01;1806500;79;21195;-60
2022/04/30 03:30:03;;;;;;;25.02;11.70;;;;;;;7.15;75.21;101481.30;1806697;79;21183;-60
2022/04/30 03:33:10;;;;;;;12.85;7.08;;;;;;;7.21;74.97;101474.00;1806654;78;21751;-60
2022/04/30 03:36:17;;;;;;;18.37;7.30;;;;;;;7.29;74.88;101478.28;1806711;79;21199;-60
2022/04/30 03:39:24;;;;;;;22.80;10.75;;;;;;;7.37;74.74;101479.87;1806677;78;21180;-60
2022/04/30 03:42:33;;;;;;;21.35;12.15;;;;;;;7.45;74.57;101479.25;1806758;78;21196;-59
2022/04/30 03:45:41;;;;;;;18.05;13.13;;;;;;;7.52;74.25;101478.59;1806766;79;21314;-60
2022/04/30 03:48:53;;;;;;;13.65;7.70;;;;;;;7.63;74.01;101477.19;1806726;78;21187;-60
2022/04/30 03:51:58;;;;;;;23.22;7.65;;;;;;;7.72;73.67;101474.67;1806121;77;21223;-60
2022/04/30 03:55:14;;;;;;;45.30;26.65;;;;;;;7.84;73.34;101473.61;1806770;79;21553;-60
2022/04/30 03:58:22;;;;;;;17.37;10.58;;;;;;;7.95;73.11;101477.15;1783405;79;21207;-60
2022/04/30 04:01:28;;;;;;;17.82;7.42;;;;;;;8.06;72.89;101474.84;1806734;79;21250;-61
2022/04/30 04:04:36;;;;;;;15.88;6.45;;;;;;;8.17;72.64;101466.59;1806714;78;21195;-60
2022/04/30 04:07:45;;;;;;;25.55;7.92;;;;;;;8.27;72.40;101464.83;1803330;78;21249;-60
2022/04/30 04:10:54;;;;;;;17.70;6.72;;;;;;;8.39;72.35;101466.47;1806926;79;21176;-60
2022/04/30 04:17:41;;;;;;;21.25;8.80;;;;;;;8.59;71.79;101467.78;1806696;78;21163;-60
2022/04/30 04:20:49;;;;;;;16.55;6.50;;;;;;;8.79;70.07;101461.42;1806862;79;21172;-60
2022/04/30 04:27:12;;;;;;;14.00;5.50;;;;;;;8.95;69.49;101468.59;1806679;79;21223;-59
2022/04/30 04:30:19;;;;;;;151.78;96.47;;;;;;;9.08;69.15;101469.19;1806693;79;21160;-61
2022/04/30 04:33:29;;;;;;;43.95;21.15;;;;;;;9.21;68.57;101462.62;1803397;78;21680;-62
2022/04/30 04:36:54;;;;;;;24.50;12.85;;;;;;;9.32;68.25;101461.13;1806651;79;21808;-63
2022/04/30 04:40:03;;;;;;;13.10;6.70;;;;;;;9.47;68.12;101461.06;1775997;79;21720;-62
2022/04/30 04:43:09;;;;;;;10.65;6.28;;;;;;;9.61;67.58;101465.61;1791941;78;21330;-62
2022/04/30 04:46:17;;;;;;;16.48;6.90;;;;;;;9.74;66.97;101455.25;1800851;79;21561;-61
2022/04/30 04:49:24;;;;;;;13.25;5.97;;;;;;;9.89;66.27;101457.92;1801447;78;21200;-61
2022/04/30 04:52:33;;;;;;;14.25;4.90;;;;;;;10.02;65.70;101457.63;1804520;78;21254;-61
2022/04/30 04:55:38;;;;;;;12.82;8.28;;;;;;;10.16;65.02;101458.56;1794959;79;21542;-62
2022/04/30 04:58:45;;;;;;;24.02;13.43;;;;;;;10.29;64.28;101459.95;1811729;78;21234;-61
2022/04/30 05:01:52;;;;;;;13.93;5.58;;;;;;;10.44;63.64;101457.13;1811531;79;21207;-63
2022/04/30 05:05:01;;;;;;;15.58;6.28;;;;;;;10.58;62.85;101461.77;1811162;79;21346;-62
2022/04/30 05:08:09;;;;;;;11.40;5.92;;;;;;;10.72;62.35;101462.11;1809972;78;21259;-63
2022/04/30 05:11:17;;;;;;;17.90;5.22;;;;;;;10.86;61.63;101464.88;1809875;79;21302;-62
2022/04/30 05:14:23;;;;;;;8.95;4.33;;;;;;;10.99;61.15;101467.61;1810025;78;21580;-61
2022/04/30 05:17:32;;;;;;;8.10;4.05;;;;;;;11.14;60.38;101476.19;1810636;78;21155;-61
2022/04/30 05:20:44;;;;;;;15.78;3.87;;;;;;;11.27;59.42;101465.73;1776590;79;21199;-61
2022/04/30 05:23:54;;;;;;;12.53;6.95;;;;;;;11.39;58.79;101469.47;1782011;79;21211;-60
2022/04/30 05:27:07;;;;;;;9.48;3.67;;;;;;;11.51;58.27;101468.22;1779628;80;21208;-61
2022/04/30 05:30:15;;;;;;;6.55;3.58;;;;;;;11.63;58.04;101467.02;1792075;78;21216;-59
2022/04/30 05:33:22;;;;;;;8.48;4.08;;;;;;;11.73;57.72;101468.33;1787879;78;22241;-60
2022/04/30 05:36:27;;;;;;;6.72;3.62;;;;;;;11.84;57.64;101458.48;1824486;78;21695;-60
2022/04/30 05:39:34;;;;;;;7.97;3.42;;;;;;;11.95;57.12;101467.34;1824910;78;21213;-61
2022/04/30 05:42:40;;;;;;;5.80;3.35;;;;;;;12.09;56.49;101467.27;1808469;78;21189;-60
2022/04/30 05:45:45;;;;;;;5.92;3.27;;;;;;;12.22;55.78;101459.48;1824981;78;21169;-61
2022/04/30 05:48:51;;;;;;;6.78;3.50;;;;;;;12.37;54.96;101458.40;1790576;78;21850;-60
2022/04/30 05:52:02;;;;;;;5.75;2.95;;;;;;;12.49;53.42;101455.72;1779127;80;21200;-61
2022/04/30 05:55:06;;;;;;;13.45;2.92;;;;;;;12.60;52.07;101452.19;1779083;79;21846;-61
2022/04/30 05:58:14;;;;;;;5.47;2.95;;;;;;;12.74;51.25;101461.20;1779813;79;21207;-59
2022/04/30 06:01:20;;;;;;;3.90;2.50;;;;;;;12.88;50.41;101459.20;1773917;77;21172;-60
2022/04/30 06:04:21;;;;;;;4.78;2.60;;;;;;;12.97;49.25;101460.95;1779238;79;21266;-60
2022/04/30 06:07:13;;;;;;;8.73;4.20;;;;;;;13.05;49.10;101452.78;1807968;79;21246;-61
2022/04/30 06:10:18;;;;;;;8.00;3.45;;;;;;;13.15;48.40;101462.27;1810599;79;21594;-60
2022/04/30 06:13:25;;;;;;;6.70;3.10;;;;;;;13.23;48.03;101464.55;1810800;78;21644;-60
2022/04/30 06:16:35;;;;;;;3.75;2.17;;;;;;;13.31;46.98;101456.32;1810645;79;21532;-60
2022/04/30 06:19:42;;;;;;;4.53;2.35;;;;;;;13.34;45.61;101450.98;1810454;78;21247;-58
2022/04/30 06:22:48;;;;;;;4.60;2.60;;;;;;;13.38;44.68;101454.61;1810296;78;21314;-60
2022/04/30 06:25:55;;;;;;;4.58;2.50;;;;;;;13.46;45.19;101446.38;1810477;79;21804;-60
2022/04/30 06:29:03;;;;;;;3.47;2.27;;;;;;;13.57;44.14;101453.47;1810476;78;21337;-61
2022/04/30 06:32:10;;;;;;;7.20;2.62;;;;;;;13.68;43.24;101454.52;1810840;79;21207;-60
2022/04/30 06:35:18;;;;;;;5.05;2.40;;;;;;;13.78;43.47;101466.74;1811821;79;21234;-61
2022/04/30 06:38:26;;;;;;;4.22;1.90;;;;;;;13.86;43.17;101453.83;1811835;78;21283;-60
2022/04/30 06:41:31;;;;;;;3.45;2.15;;;;;;;13.99;43.58;101450.56;1810220;77;21266;-61
2022/04/30 06:44:38;;;;;;;2.83;1.95;;;;;;;14.14;43.25;101459.88;1778989;79;21179;-61
2022/04/30 06:47:45;;;;;;;13.68;9.23;;;;;;;14.28;43.58;101463.34;1778756;79;21195;-60
2022/04/30 06:50:51;;;;;;;6.37;3.10;;;;;;;14.44;43.01;101460.06;1779071;80;21718;-59
2022/04/30 06:57:24;;;;;;;3.83;2.10;;;;;;;14.80;41.32;101454.45;1769131;79;21700;-60
2022/04/30 07:01:28;;;;;;;4.67;1.98;;;;;;;15.08;40.99;101460.36;1769372;80;21176;-61
2022/04/30 07:03:48;;;;;;;6.15;1.95;;;;;;;15.36;40.65;101452.48;1769078;80;21316;-60
2022/04/30 07:06:55;;;;;;;4.58;2.20;;;;;;;15.69;39.90;101445.76;1769138;80;21186;-60
2022/04/30 07:10:01;;;;;;;5.22;2.08;;;;;;;16.01;40.75;101446.39;1769381;80;21190;-60
2022/04/30 07:13:07;;;;;;;5.30;2.30;;;;;;;16.33;39.78;101449.39;1769446;80;21275;-59
2022/04/30 07:16:14;;;;;;;4.72;2.15;;;;;;;16.68;38.94;101442.32;1769396;80;21306;-59
2022/04/30 07:19:22;;;;;;;4.20;2.52;;;;;;;16.91;37.40;101437.55;1770441;79;21199;-60
2022/04/30 07:22:29;;;;;;;4.72;2.15;;;;;;;17.04;36.33;101430.31;1800931;78;21200;-60
2022/04/30 07:25:35;;;;;;;3.27;2.10;;;;;;;17.18;36.29;101432.70;1801049;79;21156;-61
2022/04/30 07:28:46;;;;;;;31.60;23.38;;;;;;;17.25;36.53;101430.34;1800797;78;21191;-59
2022/04/30 07:31:55;;;;;;;4.60;3.27;;;;;;;17.30;36.06;101427.86;1800991;79;21665;-60
2022/04/30 07:35:03;;;;;;;19.00;3.58;;;;;;;17.34;35.62;101420.91;1800477;79;21236;-60
2022/04/30 07:38:10;;;;;;;5.35;3.00;;;;;;;17.43;35.36;101424.39;1800748;78;21188;-60
2022/04/30 07:41:15;;;;;;;5.47;2.52;;;;;;;17.62;35.11;101422.41;1800518;79;21247;-60
2022/04/30 07:44:22;;;;;;;7.90;2.37;;;;;;;17.85;34.98;101415.63;1799648;78;21212;-58
2022/04/30 07:47:29;;;;;;;6.90;2.58;;;;;;;18.09;33.98;101419.94;1800546;78;21168;-60
2022/04/30 07:50:37;;;;;;;8.05;2.75;;;;;;;18.21;33.38;101416.94;1784263;79;21740;-60
2022/04/30 07:53:43;;;;;;;6.25;2.70;;;;;;;18.25;32.98;101407.15;1800130;78;21345;-61
2022/04/30 07:56:50;;;;;;;7.70;3.05;;;;;;;18.26;34.40;101411.66;1803413;77;21554;-62
2022/04/30 07:59:58;;;;;;;7.15;2.58;;;;;;;18.35;35.05;101406.28;1800802;79;21232;-61
2022/04/30 08:03:05;;;;;;;5.58;3.22;;;;;;;18.41;34.36;101403.28;1804939;79;21780;-59
2022/04/30 08:06:12;;;;;;;7.25;3.55;;;;;;;18.39;33.75;101404.00;1799773;79;21176;-60
2022/04/30 08:09:19;;;;;;;4.95;3.15;;;;;;;18.26;33.50;101403.34;1783432;79;21263;-61
2022/04/30 08:12:28;;;;;;;5.03;3.33;;;;;;;18.14;32.49;101401.31;1805383;78;21184;-60
2022/04/30 08:15:34;;;;;;;5.25;3.22;;;;;;;18.02;32.64;101391.81;1800365;79;21318;-61
2022/04/30 08:18:42;;;;;;;5.20;2.70;;;;;;;17.93;32.86;101388.34;1806210;78;21215;-60
2022/04/30 08:21:50;;;;;;;4.72;3.15;;;;;;;17.85;32.54;101391.25;1800574;79;21136;-60
2022/04/30 08:24:59;;;;;;;8.05;3.00;;;;;;;17.89;32.86;101389.78;1809005;79;21192;-61
2022/04/30 08:28:05;;;;;;;7.12;3.02;;;;;;;18.03;32.50;101393.55;1809112;78;21239;-60
2022/04/30 08:31:11;;;;;;;5.75;3.05;;;;;;;18.19;32.15;101387.17;1805336;79;21318;-60
2022/04/30 08:34:17;;;;;;;6.50;3.12;;;;;;;18.43;31.77;101385.37;1803722;78;21329;-61
2022/04/30 08:37:23;;;;;;;6.55;3.33;;;;;;;18.64;31.05;101383.92;1800417;78;21157;-60
2022/04/30 08:40:33;;;;;;;4.90;3.05;;;;;;;18.73;30.84;101383.20;1800365;79;21184;-59
2022/04/30 08:43:42;;;;;;;5.00;2.90;;;;;;;18.87;30.59;101385.86;1805951;78;21338;-60
2022/04/30 08:46:53;;;;;;;4.53;2.83;;;;;;;18.99;30.60;101373.13;1806644;79;21156;-60
2022/04/30 08:50:02;;;;;;;8.80;3.12;;;;;;;19.03;30.07;101364.70;1801360;79;21310;-61
2022/04/30 08:53:09;;;;;;;7.30;2.70;;;;;;;19.04;30.30;101373.34;1806696;78;21693;-61
2022/04/30 08:56:17;;;;;;;7.00;3.00;;;;;;;19.08;30.99;101376.04;1800149;79;21584;-61
2022/04/30 08:59:24;;;;;;;19.32;4.40;;;;;;;19.21;31.01;101373.33;1811755;78;21247;-61
2022/04/30 09:02:32;;;;;;;10.13;3.52;;;;;;;19.22;30.85;101370.00;1812247;78;21183;-61
2022/04/30 09:05:43;;;;;;;7.42;3.42;;;;;;;19.25;31.87;101369.58;1812107;79;21207;-60
2022/04/30 09:09:00;;;;;;;4.95;2.77;;;;;;;19.39;31.64;101368.61;1811826;78;21720;-60
2022/04/30 09:12:18;;;;;;;7.05;3.67;;;;;;;19.47;30.93;101369.81;1810033;78;21834;-60
2022/04/30 09:15:26;;;;;;;5.53;3.10;;;;;;;19.50;30.57;101372.17;1787079;79;21725;-60
2022/04/30 09:18:32;;;;;;;7.92;3.42;;;;;;;19.50;30.29;101363.84;1811536;78;21195;-60
2022/04/30 09:21:39;;;;;;;9.73;3.12;;;;;;;19.52;29.88;101363.63;1811258;79;21168;-61
2022/04/30 09:24:57;;;;;;;4.42;3.12;;;;;;;19.59;29.78;101368.65;1811207;78;21239;-61
2022/04/30 09:28:05;;;;;;;4.20;3.10;;;;;;;19.62;29.61;101361.27;1810497;78;21839;-61
2022/04/30 09:31:26;;;;;;;5.22;3.40;;;;;;;19.55;29.43;101357.09;1794561;79;21365;-61
2022/04/30 09:37:57;;;;;;;6.78;2.40;;;;;;;19.62;30.95;101357.98;1807927;78;21211;-60
2022/04/30 09:41:06;;;;;;;4.40;2.55;;;;;;;19.69;29.64;101360.25;1786837;79;21369;-61
2022/04/30 09:44:14;;;;;;;4.30;3.10;;;;;;;19.66;29.10;101344.52;1786100;79;21196;-60
2022/04/30 09:47:20;;;;;;;4.67;2.42;;;;;;;19.64;28.84;101350.30;1737177;81;21173;-59
2022/04/30 09:54:00;;;;;;;3.92;2.47;;;;;;;19.55;29.00;101337.64;1798104;79;21356;-60
2022/04/30 09:57:10;;;;;;;3.40;2.72;;;;;;;19.60;28.85;101343.98;1794850;79;21211;-60
2022/04/30 10:00:18;;;;;;;4.03;2.83;;;;;;;19.45;28.34;101346.94;1810671;79;21736;-59
2022/04/30 10:03:38;;;;;;;4.12;2.95;;;;;;;19.53;28.37;101343.11;1793916;78;21203;-61
2022/04/30 10:06:57;;;;;;;5.97;3.00;;;;;;;19.72;29.21;101331.17;1779320;80;21235;-62
2022/04/30 10:10:24;;;;;;;4.55;2.77;;;;;;;19.84;29.35;101333.09;1809244;79;21670;-60
2022/04/30 10:13:49;;;;;;;8.65;3.37;;;;;;;20.14;28.41;101327.98;1811171;78;21196;-61
2022/04/30 10:17:16;;;;;;;4.75;2.80;;;;;;;20.49;28.18;101326.13;1800309;79;21199;-60
2022/04/30 10:20:22;;;;;;;6.25;2.80;;;;;;;20.75;27.52;101314.94;1802760;79;21161;-61
2022/04/30 10:23:29;;;;;;;5.20;2.95;;;;;;;20.98;27.34;101315.82;1773848;79;21207;-61
2022/04/30 10:26:37;;;;;;;5.17;2.95;;;;;;;21.19;27.43;101310.47;1797522;79;21192;-61
2022/04/30 10:29:42;;;;;;;6.12;2.67;;;;;;;21.43;27.88;101306.38;1785336;79;21725;-61
2022/04/30 10:32:49;;;;;;;7.85;2.95;;;;;;;21.67;27.06;101308.89;1777127;79;21216;-59
2022/04/30 10:35:54;;;;;;;13.90;3.72;;;;;;;21.60;26.25;101299.70;1766346;81;21589;-61
2022/04/30 10:39:06;;;;;;;5.70;2.83;;;;;;;21.51;27.48;101303.85;1760214;79;21229;-59
2022/04/30 10:42:14;;;;;;;5.90;2.42;;;;;;;21.30;26.78;101300.02;1804244;79;21175;-60
2022/04/30 10:45:21;;;;;;;4.42;2.52;;;;;;;20.86;26.24;101298.08;1809097;79;21799;-60
2022/04/30 10:48:28;;;;;;;6.37;2.67;;;;;;;20.58;27.26;101303.94;1799031;78;21314;-61
2022/04/30 10:51:48;;;;;;;6.25;2.83;;;;;;;20.42;26.97;101303.02;1777936;80;21278;-60
2022/04/30 10:54:58;;;;;;;6.50;2.45;;;;;;;20.15;27.27;101299.96;1801209;79;22284;-60
2022/04/30 10:58:04;;;;;;;5.55;2.70;;;;;;;19.81;27.09;101299.31;1809887;78;21414;-61
2022/04/30 11:01:27;;;;;;;5.42;2.40;;;;;;;19.47;27.50;101299.52;1799171;77;21251;-62
2022/04/30 11:04:35;;;;;;;6.67;2.70;;;;;;;19.33;27.68;101301.39;1776279;79;21225;-61
2022/04/30 11:07:42;;;;;;;5.10;2.55;;;;;;;19.24;28.49;101291.00;1774667;79;21316;-62
2022/04/30 11:11:00;;;;;;;4.03;2.60;;;;;;;19.33;29.34;101289.77;1741148;81;21177;-62
2022/04/30 11:14:13;;;;;;;5.85;2.90;;;;;;;19.52;29.82;101284.45;1764472;81;21756;-61
2022/04/30 11:17:19;;;;;;;4.40;2.67;;;;;;;19.55;28.74;101285.42;1775448;79;21354;-61
2022/04/30 11:20:29;;;;;;;7.15;2.77;;;;;;;19.59;29.19;101282.00;1797106;78;21824;-62
2022/04/30 11:23:35;;;;;;;6.65;2.75;;;;;;;19.69;29.19;101274.63;1788925;78;21298;-62
2022/04/30 11:26:46;;;;;;;4.97;2.75;;;;;;;19.76;29.48;101269.39;1780321;79;21544;-62
2022/04/30 11:30:00;;;;;;;5.03;2.50;;;;;;;19.78;29.25;101269.17;1798417;79;21161;-61
2022/04/30 11:33:09;;;;;;;5.83;2.50;;;;;;;19.74;28.63;101267.91;1795024;78;21185;-62
2022/04/30 11:36:16;;;;;;;6.70;2.50;;;;;;;19.67;29.14;101267.91;1772742;79;21325;-62
2022/04/30 11:39:23;;;;;;;4.47;2.33;;;;;;;19.67;28.53;101267.91;1794908;78;21196;-63
2022/04/30 11:42:33;;;;;;;5.75;2.37;;;;;;;19.65;27.99;101258.05;1795133;78;21764;-61
2022/04/30 11:45:41;;;;;;;4.17;2.60;;;;;;;19.74;28.40;101252.62;1795597;78;21180;-62
2022/04/30 11:48:48;;;;;;;3.83;2.37;;;;;;;19.82;28.56;101251.85;1799773;79;21702;-63
2022/04/30 11:51:56;;;;;;;5.45;2.50;;;;;;;19.83;28.51;101252.72;1797800;79;21192;-62
2022/04/30 11:55:02;;;;;;;5.45;2.25;;;;;;;20.16;28.30;101248.00;1785473;78;21192;-63
2022/04/30 11:58:11;;;;;;;4.00;2.47;;;;;;;20.46;27.91;101241.72;1787812;78;21250;-61
2022/04/30 12:01:30;;;;;;;6.17;2.22;;;;;;;20.83;27.46;101238.11;1790082;78;21203;-62
2022/04/30 12:04:55;;;;;;;;;;;;;;;;;;;;;
2022/04/30 12:08:07;;;;;;;6.95;2.37;;;;;;;21.24;26.79;101236.32;1810710;78;21329;-62
2022/04/30 12:11:13;;;;;;;2.60;1.90;;;;;;;21.27;26.39;101231.69;1810754;79;21215;-63
2022/04/30 12:14:19;;;;;;;6.25;2.10;;;;;;;21.26;26.49;101225.81;1810572;78;22019;-62
2022/04/30 12:17:28;;;;;;;6.33;2.10;;;;;;;21.20;26.72;101225.86;1795279;78;21192;-63
2022/04/30 12:27:30;;;;;;;5.22;2.40;;;;;;;20.90;28.21;101228.90;1754716;79;21255;-61
2022/04/30 12:30:37;;;;;;;4.53;2.17;;;;;;;20.62;26.84;101219.50;1810370;79;21699;-62
2022/04/30 12:33:53;;;;;;;3.83;2.30;;;;;;;20.22;27.18;101220.70;1792383;78;21705;-62
2022/04/30 12:37:00;;;;;;;4.35;2.10;;;;;;;19.84;27.31;101218.29;1721966;83;21193;-62
2022/04/30 12:40:05;;;;;;;4.53;2.12;;;;;;;19.63;28.70;101219.38;1799527;79;21168;-63
2022/04/30 12:43:11;;;;;;;6.17;2.30;;;;;;;19.54;29.14;101221.19;1808906;79;21458;-62
2022/04/30 12:46:24;;;;;;;4.90;2.70;;;;;;;19.41;28.69;101212.88;1805313;78;21188;-62
2022/04/30 12:49:30;;;;;;;4.75;2.20;;;;;;;19.28;28.94;101216.50;1808123;77;21183;-62
2022/04/30 12:52:37;;;;;;;5.55;2.05;;;;;;;19.19;29.66;101215.81;1808337;79;21203;-62
2022/04/30 12:55:47;;;;;;;4.53;2.10;;;;;;;19.06;29.20;101216.30;1808816;79;21686;-62
2022/04/30 12:58:51;;;;;;;5.47;2.10;;;;;;;18.94;29.13;101218.86;1812378;79;21219;-62
2022/04/30 13:02:00;;;;;;;2.50;1.72;;;;;;;18.88;29.35;101210.52;1806703;79;21168;-61
2022/04/30 13:05:08;;;;;;;5.03;2.25;;;;;;;18.89;29.23;101204.76;1808606;77;21160;-62
2022/04/30 13:08:15;;;;;;;2.95;1.92;;;;;;;18.87;29.45;101197.17;1806808;77;21179;-62
2022/04/30 13:14:48;;;;;;;2.87;1.80;;;;;;;19.01;30.11;101200.28;1808905;77;21306;-62
2022/04/30 13:17:54;;;;;;;3.72;1.80;;;;;;;18.96;30.05;101198.67;1780497;77;21258;-62
2022/04/30 13:21:03;;;;;;;4.60;2.05;;;;;;;18.94;30.01;101202.73;1777218;80;21200;-63
2022/04/30 13:24:11;;;;;;;5.75;2.10;;;;;;;18.85;30.33;101204.84;1808559;78;21282;-61
2022/04/30 13:27:19;;;;;;;3.58;1.95;;;;;;;18.84;30.23;101200.36;1801509;77;21261;-61
2022/04/30 13:30:29;;;;;;;4.55;2.02;;;;;;;18.83;30.67;101196.41;1805531;77;21799;-63
2022/04/30 13:33:34;;;;;;;3.95;1.98;;;;;;;18.85;30.44;101202.06;1742919;80;21354;-62
2022/04/30 13:36:43;;;;;;;5.10;2.20;;;;;;;18.88;30.35;101200.81;1809922;77;21299;-62
2022/04/30 13:39:50;;;;;;;7.17;2.30;;;;;;;18.84;30.28;101192.56;1806875;77;21322;-62
2022/04/30 13:42:55;;;;;;;7.12;4.12;;;;;;;18.82;30.58;101187.22;1778657;79;21248;-61
2022/04/30 13:46:02;;;;;;;5.33;2.50;;;;;;;18.82;31.22;101194.16;1777958;80;21203;-62
2022/04/30 13:49:10;;;;;;;6.17;2.40;;;;;;;18.85;31.25;101190.96;1761076;80;21195;-61
2022/04/30 13:52:16;;;;;;;11.22;2.80;;;;;;;18.85;31.09;101187.36;1779236;80;21203;-62
2022/04/30 13:55:22;;;;;;;4.15;2.75;;;;;;;18.80;30.86;101196.31;1802057;79;21156;-62
2022/04/30 13:58:29;;;;;;;4.03;2.40;;;;;;;18.69;30.89;101192.77;1810459;78;21303;-62
2022/04/30 14:01:36;;;;;;;6.15;2.05;;;;;;;18.63;30.52;101183.03;1810283;79;21219;-62
2022/04/30 14:04:43;;;;;;;5.80;2.30;;;;;;;18.52;30.37;101187.80;1799440;78;21254;-61
2022/04/30 14:07:50;;;;;;;5.92;2.62;;;;;;;18.42;30.46;101179.00;1800006;78;21689;-62
2022/04/30 14:10:56;;;;;;;5.75;2.45;;;;;;;18.37;30.48;101174.05;1800872;79;21148;-62
2022/04/30 14:20:55;;;;;;;5.15;2.50;;;;;;;18.38;31.02;101173.00;1800125;79;21622;-62
2022/04/30 14:24:01;;;;;;;4.22;2.30;;;;;;;18.37;31.01;101172.66;1798397;78;21717;-62
2022/04/30 14:27:08;;;;;;;5.00;2.10;;;;;;;18.41;31.00;101170.37;1799583;79;21717;-62
2022/04/30 14:30:18;;;;;;;3.55;2.20;;;;;;;18.47;31.26;101173.14;1800456;79;21239;-62
2022/04/30 14:33:27;;;;;;;5.33;1.80;;;;;;;18.52;31.39;101165.05;1791533;79;21342;-63
2022/04/30 14:36:33;;;;;;;2.52;1.95;;;;;;;18.59;30.85;101167.85;1801402;79;21366;-62
2022/04/30 14:39:44;;;;;;;4.92;1.95;;;;;;;18.58;30.74;101171.18;1777103;78;21266;-63
2022/04/30 14:42:48;;;;;;;6.53;2.40;;;;;;;18.56;30.87;101169.14;1768268;80;21251;-62
2022/04/30 14:45:53;;;;;;;8.18;2.47;;;;;;;18.48;30.68;101161.52;1769061;80;21775;-62
2022/04/30 14:49:01;;;;;;;4.72;2.27;;;;;;;18.43;30.82;101163.53;1799006;78;21212;-62
2022/04/30 14:52:09;;;;;;;4.47;2.80;;;;;;;18.41;30.97;101161.49;1790253;80;21216;-63
2022/04/30 14:55:15;;;;;;;3.95;2.08;;;;;;;18.34;30.80;101156.44;1797234;79;21176;-62
2022/04/30 14:58:22;;;;;;;6.72;1.80;;;;;;;18.29;31.31;101158.11;1796291;79;21176;-62
2022/04/30 15:01:26;;;;;;;3.75;1.72;;;;;;;18.26;31.35;101163.55;1798348;79;21215;-63
2022/04/30 15:04:33;;;;;;;4.30;1.98;;;;;;;18.21;31.35;101158.28;1795249;77;21507;-62
2022/04/30 15:07:43;;;;;;;3.42;2.27;;;;;;;18.17;31.50;101157.00;1801192;78;21352;-62
2022/04/30 15:10:56;;;;;;;3.12;1.90;;;;;;;18.12;31.70;101157.62;1810666;79;21840;-64
2022/04/30 15:14:02;;;;;;;3.90;2.05;;;;;;;18.06;31.38;101157.04;1810839;78;21199;-64
2022/04/30 15:17:12;;;;;;;5.53;2.60;;;;;;;17.97;31.36;101165.20;1809968;79;21298;-63
2022/04/30 15:20:18;;;;;;;5.53;2.60;;;;;;;17.88;31.58;101164.53;1810193;79;21176;-62
2022/04/30 15:23:25;;;;;;;7.03;2.55;;;;;;;17.80;31.96;101163.31;1795735;78;21212;-63
2022/04/30 15:26:30;;;;;;;11.63;3.55;;;;;;;17.72;32.36;101168.14;1810032;79;21419;-62
2022/04/30 15:29:36;;;;;;;5.92;2.67;;;;;;;17.58;32.40;101166.34;1810613;78;21728;-62